sensor_id;sensor_type;location;lat;lon;timestamp;pressure;altitude;pressure_sealevel;temperature;humidity
68179;BME280;54998;42.656;23.382;2022-12-07T00:01:07;94893.53;;;3.64;81.14
68179;BME280;54998;42.656;23.382;2022-12-07T00:03:34;94889.31;;;3.64;81.22
68179;BME280;54998;42.656;23.382;2022-12-07T00:06:00;94893.75;;;3.61;80.98
68179;BME280;54998;42.656;23.382;2022-12-07T00:08:27;94893.94;;;3.58;81.60
68179;BME280;54998;42.656;23.382;2022-12-07T00:10:52;94894.03;;;3.56;81.57
68179;BME280;54998;42.656;23.382;2022-12-07T00:13:18;94887.63;;;3.50;82.13
68179;BME280;54998;42.656;23.382;2022-12-07T00:15:44;94884.06;;;3.53;81.96
68179;BME280;54998;42.656;23.382;2022-12-07T00:18:09;94880.63;;;3.54;81.82
68179;BME280;54998;42.656;23.382;2022-12-07T00:20:35;94881.97;;;3.33;82.38
68179;BME280;54998;42.656;23.382;2022-12-07T00:23:00;94875.84;;;3.22;83.11
68179;BME280;54998;42.656;23.382;2022-12-07T00:25:25;94882.94;;;3.17;83.33
68179;BME280;54998;42.656;23.382;2022-12-07T00:27:54;94884.66;;;3.17;83.84
68179;BME280;54998;42.656;23.382;2022-12-07T00:30:23;94875.00;;;3.36;83.06
68179;BME280;54998;42.656;23.382;2022-12-07T00:32:49;94877.47;;;3.23;83.06
68179;BME280;54998;42.656;23.382;2022-12-07T00:35:15;94877.47;;;3.23;83.41
68179;BME280;54998;42.656;23.382;2022-12-07T00:37:40;94879.16;;;3.37;82.98
68179;BME280;54998;42.656;23.382;2022-12-07T00:40:06;94879.59;;;3.44;82.24
68179;BME280;54998;42.656;23.382;2022-12-07T00:42:33;94897.69;;;3.52;82.32
68179;BME280;54998;42.656;23.382;2022-12-07T00:44:58;94892.41;;;3.55;82.14
68179;BME280;54998;42.656;23.382;2022-12-07T00:47:25;94883.31;;;3.65;81.77
68179;BME280;54998;42.656;23.382;2022-12-07T00:49:50;94872.84;;;3.70;81.41
68179;BME280;54998;42.656;23.382;2022-12-07T00:52:15;94877.34;;;3.79;80.92
68179;BME280;54998;42.656;23.382;2022-12-07T00:54:41;94881.41;;;3.69;80.95
68179;BME280;54998;42.656;23.382;2022-12-07T00:57:06;94875.22;;;3.73;80.85
68179;BME280;54998;42.656;23.382;2022-12-07T00:59:31;94876.19;;;3.70;80.82
68179;BME280;54998;42.656;23.382;2022-12-07T01:01:57;94877.53;;;3.76;80.89
68179;BME280;54998;42.656;23.382;2022-12-07T01:04:23;94869.69;;;3.66;81.21
68179;BME280;54998;42.656;23.382;2022-12-07T01:06:48;94873.88;;;3.67;81.33
68179;BME280;54998;42.656;23.382;2022-12-07T01:09:14;94868.28;;;3.75;81.10
68179;BME280;54998;42.656;23.382;2022-12-07T01:11:39;94873.38;;;3.75;81.30
68179;BME280;54998;42.656;23.382;2022-12-07T01:14:04;94871.44;;;3.79;80.96
68179;BME280;54998;42.656;23.382;2022-12-07T01:16:31;94873.59;;;3.85;80.79
68179;BME280;54998;42.656;23.382;2022-12-07T01:18:58;94870.75;;;3.89;80.50
68179;BME280;54998;42.656;23.382;2022-12-07T01:21:26;94861.84;;;3.84;80.62
68179;BME280;54998;42.656;23.382;2022-12-07T01:23:52;94860.50;;;3.78;80.93
68179;BME280;54998;42.656;23.382;2022-12-07T01:26:21;94864.47;;;3.82;81.07
68179;BME280;54998;42.656;23.382;2022-12-07T01:28:47;94855.75;;;3.86;80.92
68179;BME280;54998;42.656;23.382;2022-12-07T01:31:15;94857.75;;;3.81;80.81
68179;BME280;54998;42.656;23.382;2022-12-07T01:33:43;94860.28;;;3.81;80.81
68179;BME280;54998;42.656;23.382;2022-12-07T01:38:51;94852.88;;;3.78;80.65
68179;BME280;54998;42.656;23.382;2022-12-07T01:41:18;94860.25;;;3.68;80.66
68179;BME280;54998;42.656;23.382;2022-12-07T01:46:53;94859.13;;;3.60;80.51
68179;BME280;54998;42.656;23.382;2022-12-07T01:49:25;94859.13;;;3.60;81.02
68179;BME280;54998;42.656;23.382;2022-12-07T01:51:57;94849.19;;;3.57;80.80
68179;BME280;54998;42.656;23.382;2022-12-07T01:54:24;94859.72;;;3.50;81.17
68179;BME280;54998;42.656;23.382;2022-12-07T01:56:53;94841.94;;;3.50;81.33
68179;BME280;54998;42.656;23.382;2022-12-07T01:59:21;94842.78;;;3.64;80.77
68179;BME280;54998;42.656;23.382;2022-12-07T02:01:48;94842.06;;;3.62;80.82
68179;BME280;54998;42.656;23.382;2022-12-07T02:04:13;94843.19;;;3.58;81.22
68179;BME280;54998;42.656;23.382;2022-12-07T02:06:40;94834.75;;;3.57;81.28
68179;BME280;54998;42.656;23.382;2022-12-07T02:09:07;94828.38;;;3.52;81.51
68179;BME280;54998;42.656;23.382;2022-12-07T02:11:32;94831.28;;;3.45;81.29
68179;BME280;54998;42.656;23.382;2022-12-07T02:13:58;94835.66;;;3.43;81.58
68179;BME280;54998;42.656;23.382;2022-12-07T02:16:45;94833.16;;;3.56;81.41
68179;BME280;54998;42.656;23.382;2022-12-07T02:22:27;94844.44;;;3.65;80.86
68179;BME280;54998;42.656;23.382;2022-12-07T02:25:08;94838.25;;;3.69;80.82
68179;BME280;54998;42.656;23.382;2022-12-07T02:27:52;94844.44;;;3.65;81.44
68179;BME280;54998;42.656;23.382;2022-12-07T02:30:22;94833.78;;;3.73;80.96
68179;BME280;54998;42.656;23.382;2022-12-07T02:33:08;94830.13;;;3.77;80.63
68179;BME280;54998;42.656;23.382;2022-12-07T02:35:41;94824.63;;;3.70;80.86
68179;BME280;54998;42.656;23.382;2022-12-07T02:38:29;94821.63;;;3.38;81.85
68179;BME280;54998;42.656;23.382;2022-12-07T02:43:30;94817.72;;;3.59;82.21
68179;BME280;54998;42.656;23.382;2022-12-07T02:46:01;94827.97;;;3.70;81.48
68179;BME280;54998;42.656;23.382;2022-12-07T02:48:28;94816.13;;;3.71;81.12
68179;BME280;54998;42.656;23.382;2022-12-07T02:50:54;94827.19;;;3.83;80.70
68179;BME280;54998;42.656;23.382;2022-12-07T02:56:15;94827.47;;;3.65;81.33
68179;BME280;54998;42.656;23.382;2022-12-07T02:58:46;94829.09;;;3.66;81.37
68179;BME280;54998;42.656;23.382;2022-12-07T03:04:07;94817.69;;;3.46;82.16
68179;BME280;54998;42.656;23.382;2022-12-07T03:06:43;94805.78;;;3.34;82.58
68179;BME280;54998;42.656;23.382;2022-12-07T03:12:12;94804.88;;;3.35;82.39
68179;BME280;54998;42.656;23.382;2022-12-07T03:15:04;94801.81;;;3.30;82.88
68179;BME280;54998;42.656;23.382;2022-12-07T03:17:35;94798.56;;;3.28;82.57
68179;BME280;54998;42.656;23.382;2022-12-07T03:20:05;94805.38;;;3.27;82.61
68179;BME280;54998;42.656;23.382;2022-12-07T03:22:34;94806.13;;;3.15;82.98
68179;BME280;54998;42.656;23.382;2022-12-07T03:25:04;94808.28;;;3.21;82.81
68179;BME280;54998;42.656;23.382;2022-12-07T03:27:35;94790.63;;;3.20;82.72
68179;BME280;54998;42.656;23.382;2022-12-07T03:30:15;94797.44;;;3.19;82.96
68179;BME280;54998;42.656;23.382;2022-12-07T03:32:47;94797.44;;;3.19;82.76
68179;BME280;54998;42.656;23.382;2022-12-07T03:38:16;94801.06;;;3.15;82.65
68179;BME280;54998;42.656;23.382;2022-12-07T03:41:04;94802.97;;;3.12;82.67
68179;BME280;54998;42.656;23.382;2022-12-07T03:43:31;94807.88;;;3.15;82.95
68179;BME280;54998;42.656;23.382;2022-12-07T03:48:37;94801.06;;;3.15;83.68
68179;BME280;54998;42.656;23.382;2022-12-07T03:51:21;94802.97;;;3.12;83.75
68179;BME280;54998;42.656;23.382;2022-12-07T03:53:59;94802.66;;;3.16;83.86
68179;BME280;54998;42.656;23.382;2022-12-07T03:56:28;94799.25;;;3.17;84.14
68179;BME280;54998;42.656;23.382;2022-12-07T03:58:54;94786.03;;;3.12;83.99
68179;BME280;54998;42.656;23.382;2022-12-07T04:01:20;94801.78;;;3.17;83.96
68179;BME280;54998;42.656;23.382;2022-12-07T04:03:45;94796.06;;;3.14;83.61
68179;BME280;54998;42.656;23.382;2022-12-07T04:06:11;94797.91;;;3.12;83.96
68179;BME280;54998;42.656;23.382;2022-12-07T04:08:36;94793.13;;;3.07;83.83
68179;BME280;54998;42.656;23.382;2022-12-07T04:11:02;94794.03;;;3.06;84.27
68179;BME280;54998;42.656;23.382;2022-12-07T04:13:27;94793.13;;;3.07;83.52
68179;BME280;54998;42.656;23.382;2022-12-07T04:15:52;94796.84;;;3.01;83.88
68179;BME280;54998;42.656;23.382;2022-12-07T04:18:18;94794.94;;;3.05;83.92
68179;BME280;54998;42.656;23.382;2022-12-07T04:20:43;94792.22;;;3.08;83.63
68179;BME280;54998;42.656;23.382;2022-12-07T04:23:09;94786.31;;;3.07;83.40
68179;BME280;54998;42.656;23.382;2022-12-07T04:25:34;94782.75;;;2.97;83.37
68179;BME280;54998;42.656;23.382;2022-12-07T04:27:59;94786.66;;;2.88;84.04
68179;BME280;54998;42.656;23.382;2022-12-07T04:30:25;94796.41;;;2.95;84.16
68179;BME280;54998;42.656;23.382;2022-12-07T04:32:50;94797.31;;;2.94;84.16
68179;BME280;54998;42.656;23.382;2022-12-07T04:35:16;94799.94;;;2.92;83.80
68179;BME280;54998;42.656;23.382;2022-12-07T04:37:41;94794.97;;;2.91;84.26
68179;BME280;54998;42.656;23.382;2022-12-07T04:40:10;94796.91;;;2.87;84.37
68179;BME280;54998;42.656;23.382;2022-12-07T04:42:36;94798.88;;;2.82;84.94
68179;BME280;54998;42.656;23.382;2022-12-07T04:45:02;94813.00;;;2.86;84.64
68179;BME280;54998;42.656;23.382;2022-12-07T04:47:28;94809.03;;;2.82;84.58
68179;BME280;54998;42.656;23.382;2022-12-07T04:49:53;94805.69;;;2.81;84.69
68179;BME280;54998;42.656;23.382;2022-12-07T04:52:18;94805.88;;;2.78;84.42
68179;BME280;54998;42.656;23.382;2022-12-07T04:54:44;94811.69;;;2.66;84.91
68179;BME280;54998;42.656;23.382;2022-12-07T04:57:09;94803.28;;;2.65;84.42
68179;BME280;54998;42.656;23.382;2022-12-07T04:59:34;94813.94;;;2.71;84.89
68179;BME280;54998;42.656;23.382;2022-12-07T05:02:00;94807.44;;;2.66;84.70
68179;BME280;54998;42.656;23.382;2022-12-07T05:04:25;94811.59;;;2.67;84.64
68179;BME280;54998;42.656;23.382;2022-12-07T05:06:51;94798.50;;;2.61;84.63
68179;BME280;54998;42.656;23.382;2022-12-07T05:09:16;94805.53;;;2.56;84.68
68179;BME280;54998;42.656;23.382;2022-12-07T05:11:41;94811.25;;;2.59;84.79
68179;BME280;54998;42.656;23.382;2022-12-07T05:14:12;94809.81;;;2.55;85.11
68179;BME280;54998;42.656;23.382;2022-12-07T05:16:38;94803.28;;;2.51;84.91
68179;BME280;54998;42.656;23.382;2022-12-07T05:19:05;94805.94;;;2.50;85.09
68179;BME280;54998;42.656;23.382;2022-12-07T05:21:30;94808.56;;;2.48;85.31
68179;BME280;54998;42.656;23.382;2022-12-07T05:23:56;94809.34;;;2.49;85.72
68179;BME280;54998;42.656;23.382;2022-12-07T05:26:21;94812.53;;;2.38;85.78
68179;BME280;54998;42.656;23.382;2022-12-07T05:28:51;94794.84;;;2.23;86.26
68179;BME280;54998;42.656;23.382;2022-12-07T05:31:16;94802.59;;;2.35;86.79
68179;BME280;54998;42.656;23.382;2022-12-07T05:33:42;94798.16;;;2.38;86.80
68179;BME280;54998;42.656;23.382;2022-12-07T05:36:07;94816.88;;;2.50;86.90
68179;BME280;54998;42.656;23.382;2022-12-07T05:38:33;94811.44;;;2.56;86.85
68179;BME280;54998;42.656;23.382;2022-12-07T05:41:03;94805.91;;;2.64;86.29
68179;BME280;54998;42.656;23.382;2022-12-07T05:43:29;94798.94;;;2.67;86.30
68179;BME280;54998;42.656;23.382;2022-12-07T05:45:55;94798.38;;;2.77;86.35
68179;BME280;54998;42.656;23.382;2022-12-07T05:48:21;94800.59;;;2.81;86.42
68179;BME280;54998;42.656;23.382;2022-12-07T05:50:50;94797.78;;;2.86;85.99
68179;BME280;54998;42.656;23.382;2022-12-07T05:53:16;94799.22;;;2.90;85.89
68179;BME280;54998;42.656;23.382;2022-12-07T05:55:43;94803.28;;;2.93;86.18
68179;BME280;54998;42.656;23.382;2022-12-07T05:58:08;94805.56;;;2.97;85.80
68179;BME280;54998;42.656;23.382;2022-12-07T06:00:56;94802.03;;;3.00;85.66
68179;BME280;54998;42.656;23.382;2022-12-07T06:03:21;94801.66;;;3.06;85.78
68179;BME280;54998;42.656;23.382;2022-12-07T06:05:49;94810.22;;;3.03;85.63
68179;BME280;54998;42.656;23.382;2022-12-07T06:08:15;94798.63;;;3.14;85.81
68179;BME280;54998;42.656;23.382;2022-12-07T06:10:41;94797.72;;;3.15;85.25
68179;BME280;54998;42.656;23.382;2022-12-07T06:13:07;94804.50;;;3.14;85.59
68179;BME280;54998;42.656;23.382;2022-12-07T06:15:32;94800.38;;;3.26;85.36
68179;BME280;54998;42.656;23.382;2022-12-07T06:18:00;94789.66;;;3.35;84.95
68179;BME280;54998;42.656;23.382;2022-12-07T06:20:25;94799.91;;;3.46;85.00
68179;BME280;54998;42.656;23.382;2022-12-07T06:22:50;94808.78;;;3.54;84.89
68179;BME280;54998;42.656;23.382;2022-12-07T06:25:16;94799.66;;;3.64;84.76
68179;BME280;54998;42.656;23.382;2022-12-07T06:27:41;94802.28;;;3.75;84.20
68179;BME280;54998;42.656;23.382;2022-12-07T06:30:07;94814.91;;;3.89;83.99
68179;BME280;54998;42.656;23.382;2022-12-07T06:32:33;94808.41;;;3.98;83.51
68179;BME280;54998;42.656;23.382;2022-12-07T06:34:59;94814.69;;;4.18;82.90
68179;BME280;54998;42.656;23.382;2022-12-07T06:37:25;94814.22;;;4.26;82.26
68179;BME280;54998;42.656;23.382;2022-12-07T06:39:50;94812.25;;;4.42;82.38
68179;BME280;54998;42.656;23.382;2022-12-07T06:42:15;94813.66;;;4.59;81.28
68179;BME280;54998;42.656;23.382;2022-12-07T06:44:41;94813.44;;;4.75;79.68
68179;BME280;54998;42.656;23.382;2022-12-07T06:47:06;94801.34;;;4.90;78.95
68179;BME280;54998;42.656;23.382;2022-12-07T06:49:32;94815.94;;;5.12;78.63
68179;BME280;54998;42.656;23.382;2022-12-07T06:51:58;94814.97;;;5.26;76.84
68179;BME280;54998;42.656;23.382;2022-12-07T06:54:23;94817.78;;;5.34;76.23
68179;BME280;54998;42.656;23.382;2022-12-07T06:56:49;94819.03;;;5.28;75.92
68179;BME280;54998;42.656;23.382;2022-12-07T06:59:14;94821.00;;;5.25;75.45
68179;BME280;54998;42.656;23.382;2022-12-07T07:01:39;94815.19;;;5.23;75.23
68179;BME280;54998;42.656;23.382;2022-12-07T07:04:05;94815.78;;;5.26;75.04
68179;BME280;54998;42.656;23.382;2022-12-07T07:06:30;94821.94;;;5.11;75.03
68179;BME280;54998;42.656;23.382;2022-12-07T07:08:56;94816.00;;;4.99;75.03
68179;BME280;54998;42.656;23.382;2022-12-07T07:11:21;94821.66;;;5.27;75.14
68179;BME280;54998;42.656;23.382;2022-12-07T07:13:47;94816.19;;;5.44;74.61
68179;BME280;54998;42.656;23.382;2022-12-07T07:16:12;94813.44;;;5.47;74.21
68179;BME280;54998;42.656;23.382;2022-12-07T07:18:37;94814.41;;;5.58;73.06
68179;BME280;54998;42.656;23.382;2022-12-07T07:21:03;94829.03;;;5.78;72.79
68179;BME280;54998;42.656;23.382;2022-12-07T07:23:29;94828.78;;;5.70;72.23
68179;BME280;54998;42.656;23.382;2022-12-07T07:25:54;94823.66;;;5.59;72.93
68179;BME280;54998;42.656;23.382;2022-12-07T07:28:20;94818.94;;;5.65;72.97
68179;BME280;54998;42.656;23.382;2022-12-07T07:30:45;94819.31;;;5.83;72.23
68179;BME280;54998;42.656;23.382;2022-12-07T07:33:11;94821.59;;;5.64;72.38
68179;BME280;54998;42.656;23.382;2022-12-07T07:35:37;94823.63;;;5.94;72.42
68179;BME280;54998;42.656;23.382;2022-12-07T07:38:04;94832.31;;;6.61;70.63
68179;BME280;54998;42.656;23.382;2022-12-07T07:40:29;94829.59;;;7.07;68.78
68179;BME280;54998;42.656;23.382;2022-12-07T07:42:55;94829.09;;;7.25;67.67
68179;BME280;54998;42.656;23.382;2022-12-07T07:45:22;94826.66;;;7.55;66.47
68179;BME280;54998;42.656;23.382;2022-12-07T07:47:48;94826.44;;;8.21;65.17
68179;BME280;54998;42.656;23.382;2022-12-07T07:50:13;94824.56;;;9.35;62.17
68179;BME280;54998;42.656;23.382;2022-12-07T07:52:39;94815.88;;;10.24;57.66
68179;BME280;54998;42.656;23.382;2022-12-07T07:55:05;94812.97;;;10.56;56.39
68179;BME280;54998;42.656;23.382;2022-12-07T07:57:32;94818.84;;;10.39;55.47
68179;BME280;54998;42.656;23.382;2022-12-07T07:59:58;94829.97;;;9.42;58.29
68179;BME280;54998;42.656;23.382;2022-12-07T08:02:23;94818.97;;;10.37;56.82
68179;BME280;54998;42.656;23.382;2022-12-07T08:04:48;94813.72;;;11.22;53.90
68179;BME280;54998;42.656;23.382;2022-12-07T08:07:15;94814.72;;;10.93;53.77
68179;BME280;54998;42.656;23.382;2022-12-07T08:09:41;94824.97;;;9.31;58.23
68179;BME280;54998;42.656;23.382;2022-12-07T08:12:06;94828.09;;;8.32;60.75
68179;BME280;54998;42.656;23.382;2022-12-07T08:14:32;94823.00;;;8.32;61.67
68179;BME280;54998;42.656;23.382;2022-12-07T08:16:59;94824.06;;;8.51;61.56
68179;BME280;54998;42.656;23.382;2022-12-07T08:19:24;94816.81;;;8.56;61.18
68179;BME280;54998;42.656;23.382;2022-12-07T08:21:50;94814.38;;;8.54;61.21
68179;BME280;54998;42.656;23.382;2022-12-07T08:24:15;94819.19;;;8.78;60.69
68179;BME280;54998;42.656;23.382;2022-12-07T08:26:41;94815.09;;;8.35;62.22
68179;BME280;54998;42.656;23.382;2022-12-07T08:29:07;94817.59;;;8.87;61.11
68179;BME280;54998;42.656;23.382;2022-12-07T08:31:33;94809.13;;;10.23;57.44
68179;BME280;54998;42.656;23.382;2022-12-07T08:33:59;94810.81;;;11.35;53.62
68179;BME280;54998;42.656;23.382;2022-12-07T08:36:24;94812.59;;;13.09;49.28
68179;BME280;54998;42.656;23.382;2022-12-07T08:38:50;94809.22;;;13.08;48.25
68179;BME280;54998;42.656;23.382;2022-12-07T08:41:15;94811.97;;;12.72;49.54
68179;BME280;54998;42.656;23.382;2022-12-07T08:43:41;94807.56;;;13.50;47.79
68179;BME280;54998;42.656;23.382;2022-12-07T08:46:26;94806.09;;;13.31;47.28
68179;BME280;54998;42.656;23.382;2022-12-07T08:49:20;94804.78;;;10.80;53.22
68179;BME280;54998;42.656;23.382;2022-12-07T08:51:46;94795.19;;;10.73;53.95
68179;BME280;54998;42.656;23.382;2022-12-07T08:54:15;94798.13;;;9.93;55.94
68179;BME280;54998;42.656;23.382;2022-12-07T08:56:41;94808.09;;;8.68;60.23
68179;BME280;54998;42.656;23.382;2022-12-07T08:59:07;94796.78;;;8.61;61.09
68179;BME280;54998;42.656;23.382;2022-12-07T09:01:33;94799.28;;;8.41;61.52
68179;BME280;54998;42.656;23.382;2022-12-07T09:03:58;94786.91;;;8.56;60.88
68179;BME280;54998;42.656;23.382;2022-12-07T09:06:24;94784.19;;;8.79;60.63
68179;BME280;54998;42.656;23.382;2022-12-07T09:08:51;94794.38;;;8.69;60.73
68179;BME280;54998;42.656;23.382;2022-12-07T09:11:19;94797.28;;;8.55;61.51
68179;BME280;54998;42.656;23.382;2022-12-07T09:13:44;94793.16;;;8.73;61.20
68179;BME280;54998;42.656;23.382;2022-12-07T09:16:10;94793.09;;;8.44;61.54
68179;BME280;54998;42.656;23.382;2022-12-07T09:18:35;94789.53;;;8.14;62.69
68179;BME280;54998;42.656;23.382;2022-12-07T09:21:01;94776.88;;;8.13;63.11
68179;BME280;54998;42.656;23.382;2022-12-07T09:23:26;94768.38;;;8.33;62.62
68179;BME280;54998;42.656;23.382;2022-12-07T09:25:52;94766.22;;;8.38;62.24
68179;BME280;54998;42.656;23.382;2022-12-07T09:28:17;94769.34;;;8.73;61.59
68179;BME280;54998;42.656;23.382;2022-12-07T09:30:47;94768.25;;;8.75;61.13
68179;BME280;54998;42.656;23.382;2022-12-07T09:33:13;94772.25;;;8.58;61.37
68179;BME280;54998;42.656;23.382;2022-12-07T09:35:47;94769.84;;;8.57;61.14
68179;BME280;54998;42.656;23.382;2022-12-07T09:38:12;94758.88;;;8.14;63.38
68179;BME280;54998;42.656;23.382;2022-12-07T09:40:38;94748.25;;;8.50;61.94
68179;BME280;54998;42.656;23.382;2022-12-07T09:43:04;94755.53;;;8.23;61.97
68179;BME280;54998;42.656;23.382;2022-12-07T09:45:35;94752.09;;;8.34;62.15
68179;BME280;54998;42.656;23.382;2022-12-07T09:48:03;94755.53;;;8.23;62.79
68179;BME280;54998;42.656;23.382;2022-12-07T09:50:29;94750.31;;;8.35;63.07
68179;BME280;54998;42.656;23.382;2022-12-07T09:53:43;94739.72;;;8.70;61.86
68179;BME280;54998;42.656;23.382;2022-12-07T09:55:49;94739.56;;;8.62;61.77
68179;BME280;54998;42.656;23.382;2022-12-07T09:58:23;94741.44;;;8.60;61.03
68179;BME280;54998;42.656;23.382;2022-12-07T10:00:58;94748.81;;;8.53;61.43
68179;BME280;54998;42.656;23.382;2022-12-07T10:03:26;94733.25;;;8.76;60.86
68179;BME280;54998;42.656;23.382;2022-12-07T10:05:52;94725.94;;;8.52;61.21
68179;BME280;54998;42.656;23.382;2022-12-07T10:08:18;94726.81;;;8.81;61.03
68179;BME280;54998;42.656;23.382;2022-12-07T10:10:46;94727.75;;;9.00;60.71
68179;BME280;54998;42.656;23.382;2022-12-07T10:13:14;94723.03;;;8.86;60.73
68179;BME280;54998;42.656;23.382;2022-12-07T10:15:54;94719.69;;;8.95;60.51
68179;BME280;54998;42.656;23.382;2022-12-07T10:21:24;94712.06;;;8.23;62.47
68179;BME280;54998;42.656;23.382;2022-12-07T10:24:08;94711.25;;;8.44;62.69
68179;BME280;54998;42.656;23.382;2022-12-07T10:29:15;94704.72;;;9.19;59.84
68179;BME280;54998;42.656;23.382;2022-12-07T10:31:41;94709.31;;;9.25;59.48
68179;BME280;54998;42.656;23.382;2022-12-07T10:34:28;94694.34;;;9.40;59.36
68179;BME280;54998;42.656;23.382;2022-12-07T10:39:52;94683.31;;;10.98;53.39
68179;BME280;54998;42.656;23.382;2022-12-07T10:42:39;94684.72;;;10.46;54.62
68179;BME280;54998;42.656;23.382;2022-12-07T10:45:09;94685.94;;;10.42;55.17
68179;BME280;54998;42.656;23.382;2022-12-07T11:01:06;94651.75;;;9.86;57.19
68179;BME280;54998;42.656;23.382;2022-12-07T11:03:58;94660.75;;;9.63;58.05
68179;BME280;54998;42.656;23.382;2022-12-07T11:33:19;94630.94;;;9.62;57.63
68179;BME280;54998;42.656;23.382;2022-12-07T11:38:17;94602.88;;;9.13;59.26
68179;BME280;54998;42.656;23.382;2022-12-07T11:40:51;94614.34;;;8.90;59.96
68179;BME280;54998;42.656;23.382;2022-12-07T11:45:47;94610.00;;;9.00;59.85
68179;BME280;54998;42.656;23.382;2022-12-07T11:48:31;94617.56;;;9.11;59.52
68179;BME280;54998;42.656;23.382;2022-12-07T11:51:00;94609.06;;;9.20;59.52
68179;BME280;54998;42.656;23.382;2022-12-07T11:53:32;94601.94;;;9.14;59.64
68179;BME280;54998;42.656;23.382;2022-12-07T12:03:45;94588.47;;;9.02;60.40
68179;BME280;54998;42.656;23.382;2022-12-07T12:06:12;94585.66;;;8.96;60.26
68179;BME280;54998;42.656;23.382;2022-12-07T12:08:59;94583.09;;;8.96;60.88
68179;BME280;54998;42.656;23.382;2022-12-07T12:17:15;94583.50;;;8.91;60.68
68179;BME280;54998;42.656;23.382;2022-12-07T12:23:23;94567.47;;;8.99;60.29
68179;BME280;54998;42.656;23.382;2022-12-07T12:25:55;94562.50;;;8.88;60.58
68179;BME280;54998;42.656;23.382;2022-12-07T12:28:39;94565.97;;;8.87;60.92
68179;BME280;54998;42.656;23.382;2022-12-07T12:33:31;94568.97;;;8.82;61.19
68179;BME280;54998;42.656;23.382;2022-12-07T12:46:57;94546.97;;;8.01;64.14
68179;BME280;54998;42.656;23.382;2022-12-07T12:51:55;94533.97;;;8.43;63.18
68179;BME280;54998;42.656;23.382;2022-12-07T12:54:22;94541.66;;;8.53;62.85
68179;BME280;54998;42.656;23.382;2022-12-07T12:59:30;94537.44;;;8.81;61.42
68179;BME280;54998;42.656;23.382;2022-12-07T13:23:36;94544.91;;;9.59;59.58
68179;BME280;54998;42.656;23.382;2022-12-07T13:57:32;94529.25;;;8.29;65.56
68179;BME280;54998;42.656;23.382;2022-12-07T14:00:00;94522.25;;;8.41;64.96
68179;BME280;54998;42.656;23.382;2022-12-07T14:02:31;94511.38;;;8.49;64.96
68179;BME280;54998;42.656;23.382;2022-12-07T14:05:14;94516.47;;;8.29;65.58
68179;BME280;54998;42.656;23.382;2022-12-07T14:10:40;94533.03;;;8.45;65.29
68179;BME280;54998;42.656;23.382;2022-12-07T14:13:35;94531.94;;;8.47;65.13
68179;BME280;54998;42.656;23.382;2022-12-07T14:18:40;94538.28;;;8.43;65.16
68179;BME280;54998;42.656;23.382;2022-12-07T14:23:35;94538.78;;;8.37;65.34
68179;BME280;54998;42.656;23.382;2022-12-07T14:26:11;94540.00;;;8.23;65.66
68179;BME280;54998;42.656;23.382;2022-12-07T14:28:40;94544.56;;;8.19;65.99
68179;BME280;54998;42.656;23.382;2022-12-07T14:31:13;94542.56;;;8.13;66.11
68179;BME280;54998;42.656;23.382;2022-12-07T14:33:40;94539.28;;;8.01;66.13
68179;BME280;54998;42.656;23.382;2022-12-07T14:36:08;94538.47;;;7.91;66.55
68179;BME280;54998;42.656;23.382;2022-12-07T14:38:34;94543.28;;;7.75;67.06
68179;BME280;54998;42.656;23.382;2022-12-07T14:40:59;94543.50;;;7.62;67.83
68179;BME280;54998;42.656;23.382;2022-12-07T14:43:45;94533.34;;;7.41;69.02
68179;BME280;54998;42.656;23.382;2022-12-07T14:46:10;94534.13;;;7.41;69.37
68179;BME280;54998;42.656;23.382;2022-12-07T14:48:36;94528.06;;;7.33;69.06
68179;BME280;54998;42.656;23.382;2022-12-07T14:51:02;94528.72;;;7.25;69.47
68179;BME280;54998;42.656;23.382;2022-12-07T14:53:33;94537.94;;;7.16;69.68
68179;BME280;54998;42.656;23.382;2022-12-07T14:56:01;94545.84;;;7.13;70.28
68179;BME280;54998;42.656;23.382;2022-12-07T14:58:26;94544.44;;;6.99;70.43
68179;BME280;54998;42.656;23.382;2022-12-07T15:00:52;94541.66;;;6.82;70.42
68179;BME280;54998;42.656;23.382;2022-12-07T15:03:17;94547.34;;;6.74;71.21
68179;BME280;54998;42.656;23.382;2022-12-07T15:05:43;94552.16;;;6.67;71.45
68179;BME280;54998;42.656;23.382;2022-12-07T15:08:11;94559.16;;;6.54;72.00
68179;BME280;54998;42.656;23.382;2022-12-07T15:10:36;94553.25;;;6.53;72.73
68179;BME280;54998;42.656;23.382;2022-12-07T15:13:04;94559.84;;;6.56;72.81
68179;BME280;54998;42.656;23.382;2022-12-07T15:15:50;94562.09;;;6.49;72.95
68179;BME280;54998;42.656;23.382;2022-12-07T15:18:16;94554.22;;;6.41;73.12
68179;BME280;54998;42.656;23.382;2022-12-07T15:20:42;94555.09;;;6.30;73.25
68179;BME280;54998;42.656;23.382;2022-12-07T15:23:08;94561.03;;;6.20;73.43
68179;BME280;54998;42.656;23.382;2022-12-07T15:25:34;94558.94;;;6.13;74.44
68179;BME280;54998;42.656;23.382;2022-12-07T15:27:59;94555.72;;;6.11;74.65
68179;BME280;54998;42.656;23.382;2022-12-07T15:30:25;94558.25;;;6.11;75.14
68179;BME280;54998;42.656;23.382;2022-12-07T15:32:51;94556.66;;;6.10;75.02
68179;BME280;54998;42.656;23.382;2022-12-07T15:35:17;94553.88;;;6.02;75.26
68179;BME280;54998;42.656;23.382;2022-12-07T15:37:43;94560.84;;;6.00;75.25
68179;BME280;54998;42.656;23.382;2022-12-07T15:40:09;94560.28;;;5.96;75.47
68179;BME280;54998;42.656;23.382;2022-12-07T15:42:35;94560.59;;;5.92;75.52
68179;BME280;54998;42.656;23.382;2022-12-07T15:45:01;94573.13;;;5.84;75.62
68179;BME280;54998;42.656;23.382;2022-12-07T15:47:41;94560.50;;;5.82;76.67
68179;BME280;54998;42.656;23.382;2022-12-07T15:50:13;94569.53;;;5.97;76.63
68179;BME280;54998;42.656;23.382;2022-12-07T15:52:39;94564.88;;;6.03;76.29
68179;BME280;54998;42.656;23.382;2022-12-07T15:55:05;94568.91;;;5.94;76.06
68179;BME280;54998;42.656;23.382;2022-12-07T15:57:31;94577.06;;;5.88;76.12
68179;BME280;54998;42.656;23.382;2022-12-07T15:59:57;94582.97;;;5.88;76.25
68179;BME280;54998;42.656;23.382;2022-12-07T16:02:23;94585.44;;;6.22;75.35